Time;durP1;ratioP1;P1;durP2;ratioP2;P2;SDS_P1;SDS_P2;PMS_P1;PMS_P2;Temp;Humidity;BMP_temperature;BMP_pressure;BME280_temperature;BME280_humidity;BME280_pressure;Samples;Min_cycle;Max_cycle;Signal;HPM_P1;HPM_P2
2022/11/11 00:01:10;;;;;;;15.63;8.63;;;11.60;99.90;;;;;;5017679;28;20116;-78
2022/11/11 00:03:36;;;;;;;15.45;6.88;;;11.60;99.90;;;;;;5029534;28;20168;-76
2022/11/11 00:06:04;;;;;;;16.90;8.32;;;11.50;99.90;;;;;;5037081;28;20495;-77
2022/11/11 00:08:30;;;;;;;13.85;7.20;;;11.60;99.90;;;;;;5038699;28;20147;-78
2022/11/11 00:11:15;;;;;;;27.55;8.73;;;11.50;99.90;;;;;;5040337;28;20073;-77
2022/11/11 00:13:42;;;;;;;18.73;7.72;;;11.60;99.90;;;;;;5040057;28;20057;-74
2022/11/11 00:16:16;;;;;;;11.10;6.53;;;11.60;99.90;;;;;;5059377;28;20053;-77
2022/11/11 00:27:13;;;;;;;18.45;8.13;;;11.50;99.90;;;;;;5044745;28;20049;-78
2022/11/11 00:29:39;;;;;;;16.20;7.45;;;11.60;99.90;;;;;;5037105;28;20419;-78
2022/11/11 00:32:21;;;;;;;13.15;7.38;;;11.60;99.90;;;;;;5033189;28;20075;-77
2022/11/11 00:37:33;;;;;;;18.58;9.65;;;11.60;99.90;;;;;;5065408;28;20475;-80
2022/11/11 00:39:58;;;;;;;19.40;7.82;;;11.60;99.90;;;;;;5043547;28;20033;-80
2022/11/11 00:42:24;;;;;;;14.27;7.78;;;11.70;99.90;;;;;;5030731;28;20392;-78
2022/11/11 00:44:50;;;;;;;20.13;8.13;;;11.60;99.90;;;;;;5011542;28;20041;-76
2022/11/11 00:52:45;;;;;;;13.02;7.18;;;11.80;99.90;;;;;;5040176;28;20049;-78
2022/11/11 00:55:11;;;;;;;14.13;8.18;;;11.70;99.90;;;;;;5028674;28;20567;-80
2022/11/11 00:57:37;;;;;;;15.07;8.75;;;11.60;99.90;;;;;;5034980;28;20119;-77
2022/11/11 01:00:04;;;;;;;10.45;7.45;;;11.60;99.90;;;;;;5046428;28;20456;-79
2022/11/11 01:02:29;;;;;;;13.98;9.00;;;11.60;99.90;;;;;;5035344;28;20076;-79
2022/11/11 01:04:55;;;;;;;14.60;7.95;;;11.70;99.90;;;;;;5042041;28;21062;-78
2022/11/11 01:07:21;;;;;;;13.32;7.30;;;11.70;99.90;;;;;;5041751;28;20041;-74
2022/11/11 01:09:47;;;;;;;13.20;6.55;;;11.60;99.90;;;;;;5045051;28;20132;-76
2022/11/11 01:12:13;;;;;;;13.18;7.95;;;11.70;99.90;;;;;;5044059;28;20459;-77
2022/11/11 01:14:38;;;;;;;13.27;7.47;;;11.70;99.90;;;;;;5032894;28;20052;-78
2022/11/11 01:17:05;;;;;;;19.55;8.73;;;11.60;99.90;;;;;;5043875;28;20517;-79
2022/11/11 01:19:31;;;;;;;16.73;8.20;;;11.70;99.90;;;;;;5057715;28;20040;-77
2022/11/11 01:21:57;;;;;;;19.95;9.02;;;11.60;99.90;;;;;;5038019;28;20400;-78
2022/11/11 01:24:23;;;;;;;27.17;9.13;;;11.60;99.90;;;;;;5043331;28;20063;-77
2022/11/11 01:26:49;;;;;;;13.00;7.55;;;11.70;99.90;;;;;;5075129;28;20072;-79
2022/11/11 01:29:15;;;;;;;21.80;8.48;;;11.70;99.90;;;;;;5067012;28;20499;-78
2022/11/11 01:31:40;;;;;;;19.63;8.65;;;11.60;99.90;;;;;;5046593;28;20046;-78
2022/11/11 01:34:06;;;;;;;13.55;8.77;;;11.60;99.90;;;;;;5036067;28;20095;-77
2022/11/11 01:36:32;;;;;;;18.67;8.50;;;11.70;99.90;;;;;;5035250;28;20046;-75
2022/11/11 01:38:59;;;;;;;18.77;8.43;;;11.50;99.90;;;;;;5041546;28;20044;-78
2022/11/11 01:41:35;;;;;;;16.92;7.18;;;11.60;99.90;;;;;;5041365;28;20390;-78
2022/11/11 01:44:10;;;;;;;14.23;8.30;;;11.60;99.90;;;;;;5038709;28;20403;-76
2022/11/11 01:46:56;;;;;;;18.10;8.38;;;11.60;99.90;;;;;;5043838;28;20045;-77
2022/11/11 01:49:41;;;;;;;14.52;7.70;;;11.60;99.90;;;;;;5044403;28;20037;-78
2022/11/11 01:52:23;;;;;;;15.80;8.63;;;11.60;99.90;;;;;;5043473;28;20048;-78
2022/11/11 01:55:12;;;;;;;21.85;8.75;;;11.60;99.90;;;;;;5077153;28;20466;-78
2022/11/11 01:57:46;;;;;;;19.17;9.30;;;11.60;99.90;;;;;;5032969;28;20033;-78
2022/11/11 02:00:14;;;;;;;16.95;9.32;;;11.60;99.90;;;;;;5034882;28;20463;-76
2022/11/11 02:03:03;;;;;;;18.65;9.18;;;11.50;99.90;;;;;;5046664;28;20037;-78
2022/11/11 02:05:40;;;;;;;13.52;8.00;;;11.60;99.90;;;;;;5029624;28;20045;-77
2022/11/11 02:08:31;;;;;;;12.02;7.40;;;11.60;99.90;;;;;;5077564;28;20044;-78
2022/11/11 02:14:34;;;;;;;32.45;9.85;;;11.60;99.90;;;;;;5066824;28;20056;-78
2022/11/11 02:16:51;;;;;;;17.92;9.48;;;11.50;99.90;;;;;;5024563;28;20060;-78
2022/11/11 02:19:22;;;;;;;15.45;9.10;;;11.50;99.90;;;;;;5028504;28;20049;-79
2022/11/11 02:21:54;;;;;;;45.45;10.70;;;11.60;99.90;;;;;;5029295;28;20431;-79
2022/11/11 02:24:22;;;;;;;19.15;8.85;;;11.50;99.90;;;;;;5032874;28;20041;-77
2022/11/11 02:26:48;;;;;;;15.32;9.63;;;11.50;99.90;;;;;;5025314;28;20080;-76
2022/11/11 02:29:17;;;;;;;15.63;8.50;;;11.50;99.90;;;;;;5028397;28;20069;-77
2022/11/11 02:31:43;;;;;;;17.85;11.20;;;11.50;99.90;;;;;;5025906;28;20096;-79
2022/11/11 02:34:09;;;;;;;25.38;11.15;;;11.40;99.90;;;;;;5026440;28;20550;-79
2022/11/11 02:36:36;;;;;;;19.83;11.52;;;11.40;99.90;;;;;;5031686;28;20059;-78
2022/11/11 02:39:01;;;;;;;19.98;12.88;;;11.40;99.90;;;;;;5029068;28;20111;-77
2022/11/11 02:44:11;;;;;;;14.20;9.48;;;11.30;99.90;;;;;;5018529;28;20049;-79
2022/11/11 02:46:37;;;;;;;23.77;13.10;;;11.30;99.90;;;;;;5026015;28;20061;-76
2022/11/11 02:49:03;;;;;;;28.38;12.40;;;11.30;99.90;;;;;;5029988;28;20132;-78
2022/11/11 02:51:28;;;;;;;16.15;10.80;;;11.30;99.90;;;;;;5030070;28;20040;-79
2022/11/11 02:53:57;;;;;;;23.63;13.95;;;11.20;99.90;;;;;;5029969;28;20065;-76
2022/11/11 02:59:11;;;;;;;17.60;12.35;;;11.10;99.90;;;;;;5031489;28;20056;-78
2022/11/11 03:01:37;;;;;;;21.00;12.80;;;11.20;99.90;;;;;;5028702;28;20041;-77
2022/11/11 03:04:03;;;;;;;18.58;14.15;;;11.30;99.90;;;;;;5029508;28;20121;-76
2022/11/11 03:06:28;;;;;;;23.67;16.10;;;11.20;99.90;;;;;;5028827;28;20053;-76
2022/11/11 03:08:54;;;;;;;21.48;14.85;;;11.10;99.90;;;;;;5028719;28;20056;-78
2022/11/11 03:11:26;;;;;;;21.42;14.02;;;11.10;99.90;;;;;;5026153;28;20124;-76
2022/11/11 03:13:53;;;;;;;23.42;15.02;;;11.10;99.90;;;;;;5024303;28;20073;-79
2022/11/11 03:17:38;;;;;;;25.17;13.38;;;11.10;99.90;;;;;;5021240;28;20067;-74
2022/11/11 03:19:13;;;;;;;22.52;15.38;;;11.20;99.90;;;;;;5023309;28;20557;-80
2022/11/11 03:21:39;;;;;;;27.98;16.08;;;11.10;99.90;;;;;;5026068;28;20076;-78
2022/11/11 03:24:05;;;;;;;28.08;15.25;;;11.30;99.90;;;;;;5018418;28;20534;-77
2022/11/11 03:26:31;;;;;;;22.05;15.75;;;11.10;99.90;;;;;;5026361;28;20378;-79
2022/11/11 03:28:57;;;;;;;25.00;15.98;;;11.10;99.90;;;;;;5026487;28;20049;-78
2022/11/11 03:31:23;;;;;;;26.75;17.40;;;11.10;99.90;;;;;;5027144;28;20048;-78
2022/11/11 03:33:48;;;;;;;23.45;15.23;;;11.20;99.90;;;;;;5027213;28;20037;-77
2022/11/11 03:36:14;;;;;;;26.92;15.98;;;11.20;99.90;;;;;;5028644;28;20068;-78
2022/11/11 03:38:40;;;;;;;23.98;15.02;;;11.10;99.90;;;;;;5026432;28;20045;-79
2022/11/11 03:41:05;;;;;;;22.17;14.85;;;11.30;99.90;;;;;;5027598;28;20077;-76
2022/11/11 03:43:34;;;;;;;19.42;14.60;;;11.30;99.90;;;;;;5025138;28;20410;-78
2022/11/11 03:46:02;;;;;;;26.17;14.85;;;11.10;99.90;;;;;;5023582;28;20041;-79
2022/11/11 03:48:30;;;;;;;27.10;16.90;;;11.10;99.90;;;;;;5024676;28;20046;-80
2022/11/11 03:50:55;;;;;;;25.52;17.65;;;11.20;99.90;;;;;;5017838;28;20076;-79
2022/11/11 03:53:22;;;;;;;23.30;15.48;;;11.30;99.90;;;;;;5027473;28;20078;-78
2022/11/11 03:55:48;;;;;;;29.58;18.20;;;11.10;99.90;;;;;;5025986;28;20408;-77
2022/11/11 03:58:15;;;;;;;27.08;17.55;;;11.10;99.90;;;;;;5028931;28;20415;-77
2022/11/11 04:00:41;;;;;;;22.52;15.68;;;11.20;99.90;;;;;;5016458;28;20168;-77
2022/11/11 04:11:23;;;;;;;34.10;18.23;;;11.20;99.90;;;;;;5029057;28;20049;-79
2022/11/11 04:16:34;;;;;;;24.38;18.80;;;11.10;99.90;;;;;;5025682;28;20049;-80
2022/11/11 04:21:44;;;;;;;21.80;16.55;;;11.20;99.90;;;;;;5028288;28;20138;-80
2022/11/11 04:27:02;;;;;;;27.20;19.38;;;11.10;99.90;;;;;;5023092;28;20115;-80
2022/11/11 04:29:29;;;;;;;25.58;16.23;;;11.00;99.90;;;;;;5025167;28;20044;-80
2022/11/11 04:34:40;;;;;;;25.13;16.25;;;11.00;99.90;;;;;;5028380;28;20133;-76
2022/11/11 04:37:06;;;;;;;28.60;20.42;;;11.10;99.90;;;;;;5023348;28;20472;-78
2022/11/11 04:42:16;;;;;;;34.95;19.25;;;11.10;99.90;;;;;;5022735;28;20103;-78
2022/11/11 04:47:31;;;;;;;29.85;20.75;;;10.90;99.90;;;;;;5016056;28;20049;-78
2022/11/11 04:49:56;;;;;;;29.83;20.27;;;10.90;99.90;;;;;;5024870;28;20048;-79
2022/11/11 04:52:25;;;;;;;30.92;19.92;;;10.90;99.90;;;;;;5027717;28;20041;-77
2022/11/11 04:57:42;;;;;;;28.05;22.08;;;10.80;99.90;;;;;;5024493;28;20049;-79
2022/11/11 05:00:15;;;;;;;25.15;18.83;;;10.90;99.90;;;;;;5016100;28;20526;-79
2022/11/11 05:05:26;;;;;;;26.35;18.85;;;10.90;99.90;;;;;;5021536;28;20053;-79
2022/11/11 05:10:36;;;;;;;24.67;18.65;;;10.90;99.90;;;;;;5027339;28;20061;-77
2022/11/11 05:21:26;;;;;;;28.38;20.38;;;10.60;99.90;;;;;;5026833;28;20065;-78
2022/11/11 05:26:36;;;;;;;31.08;19.30;;;10.50;99.90;;;;;;5028240;28;20091;-76
2022/11/11 05:29:02;;;;;;;33.35;21.08;;;10.50;99.90;;;;;;5025786;28;20503;-77
2022/11/11 05:31:28;;;;;;;29.73;20.05;;;10.40;99.90;;;;;;5008663;28;20144;-77
2022/11/11 05:33:55;;;;;;;27.65;21.83;;;10.30;99.90;;;;;;5020664;28;20081;-75
2022/11/11 05:36:20;;;;;;;32.65;21.65;;;10.20;99.90;;;;;;5023502;28;20044;-78
2022/11/11 05:38:46;;;;;;;37.95;23.90;;;10.40;99.90;;;;;;5026302;28;20041;-76
2022/11/11 05:41:11;;;;;;;30.98;22.33;;;10.40;99.90;;;;;;5022473;28;20443;-78
2022/11/11 05:43:37;;;;;;;36.25;24.70;;;10.30;99.90;;;;;;5027142;28;20069;-79
2022/11/11 05:46:03;;;;;;;33.13;23.02;;;10.20;99.90;;;;;;5008723;28;20092;-79
2022/11/11 05:48:30;;;;;;;31.20;20.80;;;10.30;99.90;;;;;;5027929;28;20054;-79
2022/11/11 05:50:59;;;;;;;35.83;23.73;;;10.50;99.90;;;;;;5022240;28;20553;-76
2022/11/11 05:53:25;;;;;;;36.05;23.75;;;10.70;99.90;;;;;;5024232;28;20037;-77
2022/11/11 05:55:50;;;;;;;36.40;21.67;;;10.60;99.90;;;;;;5026326;28;20038;-77
2022/11/11 05:58:17;;;;;;;31.95;21.35;;;10.60;99.90;;;;;;5025271;28;20124;-78
2022/11/11 06:00:43;;;;;;;34.60;24.90;;;10.80;99.90;;;;;;5026256;28;20056;-79
2022/11/11 06:03:09;;;;;;;33.88;21.20;;;10.90;99.90;;;;;;5024741;28;20041;-76
2022/11/11 06:05:38;;;;;;;26.88;21.63;;;10.70;99.90;;;;;;5009236;28;20494;-78
2022/11/11 06:08:04;;;;;;;34.00;21.20;;;11.00;99.90;;;;;;5043241;28;20128;-76
2022/11/11 06:10:29;;;;;;;29.85;19.80;;;10.90;99.90;;;;;;5023561;28;20393;-78
2022/11/11 06:13:03;;;;;;;36.63;24.08;;;11.00;99.90;;;;;;5021154;28;20128;-77
2022/11/11 06:15:39;;;;;;;30.65;20.75;;;11.00;99.90;;;;;;5019525;28;20076;-75
2022/11/11 06:18:06;;;;;;;31.83;22.67;;;10.80;99.90;;;;;;5015778;28;20450;-79
2022/11/11 06:20:34;;;;;;;24.15;19.20;;;10.90;99.90;;;;;;5024905;28;20064;-78
2022/11/11 06:23:01;;;;;;;30.55;21.30;;;10.90;99.90;;;;;;5025658;28;20645;-76
2022/11/11 06:28:14;;;;;;;33.90;20.55;;;11.00;99.90;;;;;;5025010;28;20107;-77
2022/11/11 06:30:41;;;;;;;27.77;20.40;;;10.90;99.90;;;;;;5024414;28;20538;-78
2022/11/11 06:33:08;;;;;;;31.23;23.23;;;11.00;99.90;;;;;;5010325;28;20041;-77
2022/11/11 06:35:38;;;;;;;35.90;22.33;;;10.90;99.90;;;;;;5025521;28;20063;-75
2022/11/11 06:38:05;;;;;;;36.42;24.63;;;10.90;99.90;;;;;;5028710;28;20041;-79
2022/11/11 06:40:31;;;;;;;30.35;23.17;;;11.00;99.90;;;;;;5027675;28;20090;-79
2022/11/11 06:42:58;;;;;;;33.25;23.88;;;10.80;99.90;;;;;;5026376;28;20076;-76
2022/11/11 06:45:25;;;;;;;30.67;21.30;;;10.90;99.90;;;;;;5026920;28;20034;-78
2022/11/11 06:47:50;;;;;;;36.03;22.00;;;10.80;99.90;;;;;;5028310;28;20077;-79
2022/11/11 06:50:16;;;;;;;34.75;22.88;;;10.80;99.90;;;;;;5020516;28;20152;-78
2022/11/11 06:52:42;;;;;;;31.83;23.27;;;11.00;99.90;;;;;;5026794;28;20041;-75
2022/11/11 06:55:08;;;;;;;40.65;23.88;;;10.90;99.90;;;;;;5028701;28;20574;-77
2022/11/11 06:57:34;;;;;;;33.67;25.08;;;10.80;99.90;;;;;;5022311;28;20567;-77
2022/11/11 06:59:59;;;;;;;35.50;22.55;;;10.90;99.90;;;;;;5029774;28;20427;-76
2022/11/11 07:02:25;;;;;;;34.22;24.27;;;10.80;99.90;;;;;;5028780;28;20209;-79
2022/11/11 07:04:51;;;;;;;33.55;24.40;;;10.70;99.90;;;;;;5028866;28;20404;-78
2022/11/11 07:07:16;;;;;;;40.35;26.25;;;10.90;99.90;;;;;;5006688;28;20440;-78
2022/11/11 07:09:42;;;;;;;32.10;24.60;;;10.90;99.90;;;;;;5007853;28;20353;-77
2022/11/11 07:12:08;;;;;;;36.20;26.25;;;10.80;99.90;;;;;;5028120;28;20034;-78
2022/11/11 07:14:34;;;;;;;30.45;23.60;;;10.70;99.90;;;;;;5028873;28;20059;-77
2022/11/11 07:16:59;;;;;;;34.53;24.55;;;10.80;99.90;;;;;;5028762;28;20128;-79
2022/11/11 07:19:25;;;;;;;32.85;25.45;;;10.90;99.90;;;;;;5029630;28;20045;-78
2022/11/11 07:21:51;;;;;;;34.60;25.60;;;10.90;99.90;;;;;;5025692;28;20042;-77
2022/11/11 07:24:16;;;;;;;37.28;23.35;;;10.90;99.90;;;;;;5028832;28;20155;-78
2022/11/11 07:26:42;;;;;;;35.45;24.58;;;10.90;99.90;;;;;;5028256;28;20056;-78
2022/11/11 07:29:08;;;;;;;44.28;27.02;;;10.70;99.90;;;;;;5028677;28;20450;-76
2022/11/11 07:31:34;;;;;;;39.08;25.58;;;10.90;99.90;;;;;;5011627;28;20053;-77
2022/11/11 07:34:00;;;;;;;37.60;25.92;;;10.90;99.90;;;;;;5028213;28;20095;-78
2022/11/11 07:36:25;;;;;;;32.22;24.48;;;10.80;99.90;;;;;;5027752;28;20053;-77
2022/11/11 07:38:51;;;;;;;30.67;22.88;;;10.70;99.90;;;;;;5028542;28;20052;-77
2022/11/11 07:41:16;;;;;;;40.38;25.63;;;10.80;99.90;;;;;;5027242;28;20053;-76
2022/11/11 07:43:42;;;;;;;31.65;23.63;;;10.90;99.90;;;;;;5027683;28;20136;-76
2022/11/11 07:46:08;;;;;;;31.50;25.90;;;10.80;99.90;;;;;;5028836;28;20052;-76
2022/11/11 07:48:33;;;;;;;35.30;25.80;;;10.80;99.90;;;;;;5029615;28;20384;-79
2022/11/11 07:50:59;;;;;;;32.90;23.58;;;10.70;99.90;;;;;;5029164;28;20463;-81
2022/11/11 07:53:27;;;;;;;30.98;24.17;;;10.80;99.90;;;;;;5028534;28;20694;-77
2022/11/11 07:55:53;;;;;;;29.77;21.67;;;10.80;99.90;;;;;;5009616;28;20073;-81
2022/11/11 07:58:19;;;;;;;36.83;25.48;;;10.80;99.90;;;;;;5028650;28;20081;-79
2022/11/11 08:00:45;;;;;;;33.15;22.90;;;10.90;99.90;;;;;;5026182;28;20091;-77
2022/11/11 08:03:11;;;;;;;30.02;24.38;;;10.90;99.90;;;;;;5027015;28;20497;-78
2022/11/11 08:05:36;;;;;;;34.08;25.10;;;10.80;99.90;;;;;;5029008;28;20127;-77
2022/11/11 08:08:07;;;;;;;34.45;25.73;;;10.80;99.90;;;;;;5021814;28;20034;-78
2022/11/11 08:10:33;;;;;;;37.78;24.00;;;10.80;99.90;;;;;;5025254;28;20048;-79
2022/11/11 08:15:43;;;;;;;39.80;26.73;;;10.80;99.90;;;;;;5028751;28;20049;-77
2022/11/11 08:18:09;;;;;;;32.08;23.90;;;10.80;99.90;;;;;;5034394;28;20482;-81
2022/11/11 08:20:35;;;;;;;32.47;24.00;;;10.70;99.90;;;;;;5013270;28;20046;-79
2022/11/11 08:23:03;;;;;;;32.20;25.60;;;10.80;99.90;;;;;;5024303;28;20056;-80
2022/11/11 08:25:29;;;;;;;37.28;25.23;;;10.90;99.90;;;;;;5025497;28;20054;-79
2022/11/11 08:28:00;;;;;;;35.92;26.50;;;10.90;99.90;;;;;;5027324;28;20546;-79
2022/11/11 08:30:26;;;;;;;31.90;23.55;;;10.90;99.90;;;;;;5012232;28;20049;-74
2022/11/11 08:33:00;;;;;;;35.58;26.15;;;10.70;99.90;;;;;;5015632;28;20067;-79
2022/11/11 08:35:26;;;;;;;29.40;23.65;;;10.90;99.90;;;;;;5013971;28;20511;-81
2022/11/11 08:37:53;;;;;;;38.22;26.70;;;10.80;99.90;;;;;;5030634;28;20080;-80
2022/11/11 08:40:18;;;;;;;31.27;24.60;;;10.80;99.90;;;;;;5030265;28;20037;-77
2022/11/11 08:42:44;;;;;;;30.02;24.20;;;10.90;99.90;;;;;;5028768;28;20041;-74
2022/11/11 08:45:11;;;;;;;36.65;24.63;;;10.70;99.90;;;;;;5024761;28;20133;-80
2022/11/11 08:47:37;;;;;;;29.52;22.13;;;10.70;99.90;;;;;;5025178;28;20533;-75
2022/11/11 08:50:04;;;;;;;35.92;27.55;;;10.80;99.90;;;;;;5027718;28;20072;-78
2022/11/11 08:52:30;;;;;;;33.95;23.38;;;10.70;99.90;;;;;;5026514;28;20069;-80
2022/11/11 08:54:56;;;;;;;37.22;25.10;;;10.80;99.90;;;;;;5026072;28;20535;-79
2022/11/11 08:57:21;;;;;;;34.03;24.33;;;10.70;99.90;;;;;;5025967;28;20041;-79
2022/11/11 08:59:47;;;;;;;34.45;22.17;;;10.80;99.90;;;;;;5023505;28;20411;-80
2022/11/11 09:02:13;;;;;;;34.47;22.58;;;10.80;99.90;;;;;;5005291;28;20042;-76
2022/11/11 09:04:39;;;;;;;34.15;23.45;;;10.70;99.90;;;;;;5004972;28;20046;-79
2022/11/11 09:07:07;;;;;;;33.38;24.65;;;10.60;99.90;;;;;;4989663;28;20041;-76
2022/11/11 09:09:33;;;;;;;25.17;22.20;;;10.70;99.90;;;;;;5017421;28;20399;-75
2022/11/11 09:11:58;;;;;;;29.80;23.00;;;10.80;99.90;;;;;;5025072;28;20095;-78
2022/11/11 09:14:25;;;;;;;31.55;20.58;;;10.70;99.90;;;;;;5024758;28;20237;-76
2022/11/11 09:16:51;;;;;;;30.05;22.92;;;10.70;99.90;;;;;;5024439;28;20050;-77
2022/11/11 09:19:17;;;;;;;32.33;23.77;;;10.90;99.90;;;;;;5026277;28;20140;-78
2022/11/11 09:21:42;;;;;;;30.40;22.98;;;10.80;99.90;;;;;;5022461;28;20038;-76
2022/11/11 09:24:08;;;;;;;28.65;22.33;;;10.70;99.90;;;;;;5023131;28;20440;-77
2022/11/11 09:26:34;;;;;;;36.90;24.88;;;10.80;99.90;;;;;;5023252;28;20045;-76
2022/11/11 09:29:00;;;;;;;38.78;26.15;;;10.70;99.90;;;;;;5006942;28;20480;-74
2022/11/11 09:31:25;;;;;;;29.75;24.92;;;10.80;99.90;;;;;;5007752;28;20133;-78
2022/11/11 09:33:51;;;;;;;32.78;21.88;;;10.70;99.90;;;;;;5022169;28;20053;-77
2022/11/11 09:36:17;;;;;;;32.38;22.75;;;10.70;99.90;;;;;;5022989;28;20042;-76
2022/11/11 09:38:43;;;;;;;32.30;23.83;;;10.70;99.90;;;;;;5025684;28;20455;-77
2022/11/11 09:41:37;;;;;;;32.78;23.42;;;10.90;99.90;;;;;;5022831;28;20034;-79
2022/11/11 09:44:03;;;;;;;34.33;22.80;;;10.80;99.90;;;;;;5023801;28;20543;-77
2022/11/11 09:46:47;;;;;;;34.80;25.85;;;10.80;99.90;;;;;;5023666;28;20081;-76
2022/11/11 09:49:16;;;;;;;32.75;23.60;;;10.90;99.90;;;;;;5021632;28;20159;-79
2022/11/11 09:51:54;;;;;;;28.05;22.65;;;10.80;99.90;;;;;;5024690;28;20057;-77
2022/11/11 09:54:39;;;;;;;30.63;23.38;;;10.90;99.90;;;;;;5022874;28;20121;-78
2022/11/11 09:57:14;;;;;;;26.52;20.98;;;10.80;99.90;;;;;;5020077;28;20048;-80
2022/11/11 09:59:48;;;;;;;29.08;19.65;;;10.90;99.90;;;;;;5020154;28;20128;-76
2022/11/11 10:02:48;;;;;;;33.17;23.67;;;10.80;99.90;;;;;;5023574;28;20045;-78
2022/11/11 10:05:20;;;;;;;31.42;19.88;;;11.00;99.90;;;;;;5026042;28;20535;-76
2022/11/11 10:08:00;;;;;;;27.58;21.70;;;11.00;99.90;;;;;;5026075;28;20072;-76
2022/11/11 10:10:35;;;;;;;27.90;21.50;;;11.10;99.90;;;;;;5028436;28;20057;-77
2022/11/11 10:13:02;;;;;;;35.00;22.55;;;11.00;99.90;;;;;;5028562;28;20052;-75
2022/11/11 10:15:39;;;;;;;29.98;21.80;;;11.10;99.90;;;;;;5024400;28;20046;-78
2022/11/11 10:18:19;;;;;;;30.65;20.70;;;11.10;99.90;;;;;;5025892;28;20482;-75
2022/11/11 10:20:53;;;;;;;28.52;20.80;;;10.90;99.90;;;;;;5028326;28;20056;-79
2022/11/11 10:23:28;;;;;;;26.75;21.98;;;11.00;99.90;;;;;;5027411;28;20096;-76
2022/11/11 10:25:56;;;;;;;28.20;21.27;;;11.00;99.90;;;;;;5026779;28;20488;-75
2022/11/11 10:28:30;;;;;;;25.50;19.38;;;11.10;99.90;;;;;;5026718;28;20081;-78
2022/11/11 10:30:56;;;;;;;31.77;20.35;;;11.00;99.90;;;;;;5024430;28;20041;-76
2022/11/11 10:33:31;;;;;;;28.05;19.15;;;11.10;99.90;;;;;;5027565;28;20046;-77
2022/11/11 10:36:00;;;;;;;24.23;20.33;;;11.00;99.90;;;;;;5005228;28;20049;-75
2022/11/11 10:38:34;;;;;;;28.07;20.03;;;11.00;99.90;;;;;;5021459;28;20053;-77
2022/11/11 10:41:22;;;;;;;25.20;20.08;;;11.10;99.90;;;;;;5027098;28;20307;-77
2022/11/11 10:43:48;;;;;;;27.80;19.60;;;11.20;99.90;;;;;;5016578;28;20049;-78
2022/11/11 10:46:49;;;;;;;27.40;20.23;;;11.20;99.90;;;;;;5027241;28;20092;-75
2022/11/11 10:49:21;;;;;;;47.53;20.38;;;11.10;99.90;;;;;;5025049;28;20089;-77
2022/11/11 10:52:13;;;;;;;24.23;19.45;;;11.10;99.90;;;;;;5024785;28;20503;-75
2022/11/11 10:54:55;;;;;;;29.60;18.88;;;11.20;99.90;;;;;;5010955;28;20392;-76
2022/11/11 10:57:35;;;;;;;28.63;19.13;;;11.30;99.90;;;;;;5028240;28;20046;-77
2022/11/11 11:00:10;;;;;;;23.73;18.13;;;11.20;99.90;;;;;;5025591;28;20495;-73
2022/11/11 11:03:01;;;;;;;21.92;17.80;;;11.20;99.90;;;;;;5010616;28;20049;-75
2022/11/11 11:06:05;;;;;;;23.33;19.98;;;11.10;99.90;;;;;;5025249;28;20064;-75
2022/11/11 11:08:56;;;;;;;29.63;20.92;;;11.10;99.90;;;;;;5015397;28;20075;-75
2022/11/11 11:11:27;;;;;;;20.40;17.45;;;11.20;99.90;;;;;;5007672;28;20112;-75
2022/11/11 11:14:09;;;;;;;22.23;18.90;;;11.10;99.90;;;;;;5022243;28;20178;-75
2022/11/11 11:16:46;;;;;;;27.45;19.67;;;11.20;99.90;;;;;;5024138;28;20037;-75
2022/11/11 11:19:21;;;;;;;24.88;18.77;;;11.30;99.90;;;;;;5024022;28;20077;-75
2022/11/11 11:22:01;;;;;;;21.92;17.40;;;11.30;99.90;;;;;;5027338;28;20046;-76
2022/11/11 11:24:31;;;;;;;25.15;17.25;;;11.20;99.90;;;;;;5016726;28;20102;-75
2022/11/11 11:26:59;;;;;;;20.05;17.70;;;11.20;99.90;;;;;;5023477;28;20403;-75
2022/11/11 11:29:29;;;;;;;31.08;19.48;;;11.20;99.90;;;;;;5024541;28;20026;-76
2022/11/11 11:31:55;;;;;;;21.92;18.60;;;11.10;99.90;;;;;;5025513;28;20122;-75
2022/11/11 11:34:29;;;;;;;20.70;17.58;;;11.10;99.90;;;;;;5025555;28;20087;-76
2022/11/11 11:37:01;;;;;;;27.13;18.73;;;11.10;99.90;;;;;;5023202;28;20492;-76
2022/11/11 11:39:38;;;;;;;20.65;15.93;;;11.20;99.90;;;;;;5020578;28;20080;-75
2022/11/11 11:42:04;;;;;;;24.58;17.33;;;11.20;99.90;;;;;;5014728;28;20034;-74
2022/11/11 11:44:31;;;;;;;21.50;17.00;;;11.20;99.90;;;;;;5026253;28;20033;-78
2022/11/11 11:47:05;;;;;;;26.80;18.98;;;11.20;99.90;;;;;;5005378;28;20053;-76
2022/11/11 11:49:42;;;;;;;25.85;17.38;;;11.10;99.90;;;;;;5026421;28;20048;-77
2022/11/11 11:52:34;;;;;;;20.30;15.88;;;11.20;99.90;;;;;;5026177;28;20060;-77
2022/11/11 11:55:16;;;;;;;19.58;15.32;;;11.10;99.90;;;;;;5026585;28;20183;-76
2022/11/11 11:57:45;;;;;;;26.20;17.23;;;11.30;99.90;;;;;;5024886;28;20103;-77
2022/11/11 12:00:24;;;;;;;23.98;15.85;;;11.20;99.90;;;;;;5026850;28;20045;-76
2022/11/11 12:03:27;;;;;;;21.77;17.02;;;11.30;99.90;;;;;;5025476;28;20045;-76
2022/11/11 12:06:28;;;;;;;19.13;16.15;;;11.20;99.90;;;;;;5024055;28;20065;-76
2022/11/11 12:09:17;;;;;;;21.50;16.77;;;11.30;99.90;;;;;;5004266;28;20119;-76
2022/11/11 12:11:46;;;;;;;21.58;14.50;;;11.20;99.90;;;;;;5002431;28;20129;-75
2022/11/11 12:14:50;;;;;;;22.23;16.98;;;11.20;99.90;;;;;;5025528;28;20416;-75
2022/11/11 12:17:39;;;;;;;27.40;19.40;;;11.20;99.90;;;;;;5025882;28;20095;-75
2022/11/11 12:20:20;;;;;;;20.08;16.27;;;11.10;99.90;;;;;;5006480;28;20496;-77
2022/11/11 12:23:13;;;;;;;22.77;17.90;;;11.20;99.90;;;;;;5024181;28;20049;-77
2022/11/11 12:26:02;;;;;;;24.02;17.40;;;11.10;99.90;;;;;;5008107;28;20514;-76
2022/11/11 12:28:31;;;;;;;22.45;16.80;;;11.20;99.90;;;;;;5006039;28;20491;-76
2022/11/11 12:31:06;;;;;;;22.33;16.60;;;11.10;99.90;;;;;;5016191;28;20068;-76
2022/11/11 12:33:46;;;;;;;21.50;17.48;;;11.20;99.90;;;;;;5006667;28;20129;-77
2022/11/11 12:36:49;;;;;;;24.15;17.83;;;11.10;99.90;;;;;;4992847;28;20064;-76
2022/11/11 12:39:40;;;;;;;20.90;16.67;;;11.10;99.90;;;;;;5026148;28;20064;-77
2022/11/11 12:42:14;;;;;;;21.58;17.08;;;11.20;99.90;;;;;;5027634;28;20125;-75
2022/11/11 12:44:53;;;;;;;26.85;20.67;;;11.20;99.90;;;;;;5027383;28;20109;-77
2022/11/11 12:47:40;;;;;;;24.88;19.95;;;11.20;99.90;;;;;;5026838;28;20095;-78
2022/11/11 12:50:18;;;;;;;23.17;18.30;;;11.00;99.90;;;;;;5028924;28;20069;-75
2022/11/11 12:52:47;;;;;;;26.60;17.83;;;11.10;99.90;;;;;;5028474;28;20128;-76
2022/11/11 12:55:18;;;;;;;27.73;20.17;;;11.00;99.90;;;;;;5026695;28;20571;-78
2022/11/11 12:58:13;;;;;;;29.35;20.15;;;10.90;99.90;;;;;;5025397;28;20390;-76
2022/11/11 13:01:14;;;;;;;37.17;22.42;;;11.00;99.90;;;;;;5026385;28;20064;-76
2022/11/11 13:03:48;;;;;;;26.77;18.77;;;10.90;99.90;;;;;;5028278;28;20049;-77
2022/11/11 13:06:26;;;;;;;27.00;20.52;;;11.00;99.90;;;;;;5028136;28;20056;-76
2022/11/11 13:09:03;;;;;;;25.98;20.95;;;11.00;99.90;;;;;;5048624;28;20037;-78
2022/11/11 13:11:52;;;;;;;30.00;22.08;;;10.90;99.90;;;;;;5026207;28;20579;-75
2022/11/11 13:14:52;;;;;;;25.67;19.73;;;11.10;99.90;;;;;;5009272;28;20053;-77
2022/11/11 13:17:17;;;;;;;23.30;16.95;;;11.00;99.90;;;;;;4995700;28;20504;-75
2022/11/11 13:19:58;;;;;;;22.88;19.35;;;11.10;99.90;;;;;;4999870;28;20045;-74
2022/11/11 13:22:31;;;;;;;26.25;20.98;;;10.90;99.90;;;;;;5005682;28;20046;-76
2022/11/11 13:25:01;;;;;;;27.08;21.10;;;11.00;99.90;;;;;;5006189;28;20069;-76
2022/11/11 13:27:38;;;;;;;27.88;20.92;;;11.10;99.90;;;;;;5006425;28;20042;-77
2022/11/11 13:30:22;;;;;;;30.67;21.95;;;11.00;99.90;;;;;;5008818;28;20057;-74
2022/11/11 13:33:14;;;;;;;26.35;19.30;;;11.10;99.90;;;;;;5004553;28;20403;-77
2022/11/11 13:35:57;;;;;;;26.58;21.48;;;11.10;99.90;;;;;;4996540;28;20065;-80
2022/11/11 13:38:30;;;;;;;25.38;18.15;;;11.20;99.90;;;;;;4995571;28;20044;-75
2022/11/11 13:40:59;;;;;;;27.48;20.52;;;11.20;99.90;;;;;;5004843;28;20053;-78
2022/11/11 13:43:39;;;;;;;24.63;19.65;;;11.20;99.90;;;;;;4996747;28;20285;-76
2022/11/11 13:46:06;;;;;;;30.33;20.15;;;11.20;99.90;;;;;;5015130;28;20124;-77
2022/11/11 13:48:42;;;;;;;27.70;20.92;;;11.20;99.90;;;;;;5012406;28;20080;-79
2022/11/11 13:51:34;;;;;;;27.13;19.73;;;11.20;99.90;;;;;;5011709;28;20038;-79
2022/11/11 13:54:01;;;;;;;30.50;21.15;;;11.10;99.90;;;;;;5017526;28;20129;-77
2022/11/11 13:56:33;;;;;;;27.30;19.45;;;11.20;99.90;;;;;;5011611;28;20108;-78
2022/11/11 13:58:59;;;;;;;27.92;20.55;;;11.20;99.90;;;;;;5007063;28;20049;-78
2022/11/11 14:01:35;;;;;;;24.45;18.88;;;11.10;99.90;;;;;;5010734;28;20467;-77
2022/11/11 14:04:04;;;;;;;26.75;19.75;;;11.10;99.90;;;;;;5002008;28;20046;-77